Time;durP1;ratioP1;P1;durP2;ratioP2;P2;SDS_P1;SDS_P2;PMS_P1;PMS_P2;Temp;Humidity;BMP_temperature;BMP_pressure;BME280_temperature;BME280_humidity;BME280_pressure;Samples;Min_cycle;Max_cycle;Signal;HPM_P1;HPM_P2
2022/08/05 00:01:31;;;;;;;0.47;0.47;;;25.40;99.90;;;;;;5029346;28;20912;-73
2022/08/05 00:04:02;;;;;;;0.50;0.50;;;25.30;99.90;;;;;;5034954;28;21061;-74
2022/08/05 00:06:35;;;;;;;0.80;0.75;;;25.20;99.90;;;;;;5018818;28;20429;-74
2022/08/05 00:09:03;;;;;;;0.65;0.65;;;25.20;99.90;;;;;;5029130;28;20504;-76
2022/08/05 00:11:38;;;;;;;0.82;0.82;;;25.00;99.90;;;;;;5029940;28;20984;-72
2022/08/05 00:14:15;;;;;;;0.90;0.90;;;25.00;99.90;;;;;;5002335;28;20917;-73
2022/08/05 00:16:44;;;;;;;1.27;1.17;;;24.90;99.90;;;;;;5031821;28;20437;-73
2022/08/05 00:19:21;;;;;;;1.05;1.05;;;24.90;99.90;;;;;;5025705;28;20469;-72
2022/08/05 00:21:50;;;;;;;1.23;1.23;;;24.80;99.90;;;;;;5030660;28;20525;-75
2022/08/05 00:24:19;;;;;;;1.10;1.10;;;24.80;99.90;;;;;;5035170;28;20491;-74
2022/08/05 00:26:56;;;;;;;1.07;1.07;;;24.80;99.90;;;;;;5027025;28;20451;-75
2022/08/05 00:29:24;;;;;;;1.50;1.00;;;24.90;99.90;;;;;;5034708;28;21144;-70
2022/08/05 00:31:53;;;;;;;1.00;1.00;;;24.80;99.90;;;;;;5031437;28;20461;-72
2022/08/05 00:34:44;;;;;;;1.00;1.00;;;24.80;99.90;;;;;;5023997;28;20481;-70
2022/08/05 00:37:31;;;;;;;1.35;1.33;;;24.70;99.90;;;;;;5028263;28;20444;-72
2022/08/05 00:40:23;;;;;;;1.30;1.20;;;24.70;99.90;;;;;;5033968;28;20432;-74
2022/08/05 00:42:55;;;;;;;2.77;1.23;;;24.60;99.90;;;;;;5035375;28;20426;-71
2022/08/05 00:45:22;;;;;;;2.00;1.17;;;24.60;99.90;;;;;;5029039;28;20454;-69
2022/08/05 00:48:09;;;;;;;1.25;1.20;;;24.60;99.90;;;;;;5030859;28;20433;-69
2022/08/05 00:50:39;;;;;;;1.30;1.25;;;24.60;99.90;;;;;;5021504;28;20522;-71
2022/08/05 00:53:27;;;;;;;1.08;1.00;;;24.60;99.90;;;;;;5046377;28;20444;-72
2022/08/05 00:56:15;;;;;;;0.90;0.90;;;24.60;99.90;;;;;;5032620;28;20911;-70
2022/08/05 00:58:48;;;;;;;0.80;0.80;;;24.60;99.90;;;;;;5026979;28;20547;-70
2022/08/05 01:01:14;;;;;;;0.90;0.90;;;24.70;99.90;;;;;;5035985;28;20442;-72
2022/08/05 01:04:02;;;;;;;0.70;0.70;;;24.70;99.90;;;;;;5017463;28;20423;-72
2022/08/05 01:06:42;;;;;;;0.85;0.82;;;24.80;99.90;;;;;;5044760;28;20425;-71
2022/08/05 01:09:14;;;;;;;0.70;0.70;;;24.60;99.90;;;;;;5036651;28;20426;-72
2022/08/05 01:11:49;;;;;;;2.00;0.95;;;24.50;99.90;;;;;;5032024;28;20909;-73
2022/08/05 01:14:23;;;;;;;0.50;0.50;;;24.30;99.90;;;;;;5033559;28;20453;-70
2022/08/05 01:16:54;;;;;;;0.70;0.70;;;24.30;99.90;;;;;;5021802;28;20431;-71
2022/08/05 01:19:20;;;;;;;0.70;0.70;;;24.20;99.90;;;;;;5022288;28;20797;-71
2022/08/05 01:22:16;;;;;;;0.77;0.70;;;24.30;99.90;;;;;;5031962;28;20913;-73
2022/08/05 01:24:49;;;;;;;0.90;0.70;;;24.30;99.90;;;;;;5025115;28;20524;-71
2022/08/05 01:27:18;;;;;;;0.40;0.40;;;24.30;99.90;;;;;;5034406;28;20462;-70
2022/08/05 01:29:51;;;;;;;0.70;0.70;;;24.20;99.90;;;;;;5043197;28;20983;-71
2022/08/05 01:32:25;;;;;;;0.63;0.50;;;24.10;99.90;;;;;;5027372;28;20522;-70
2022/08/05 01:34:57;;;;;;;0.60;0.60;;;24.10;99.90;;;;;;5033085;28;20501;-71
2022/08/05 01:37:52;;;;;;;0.95;0.50;;;24.00;99.90;;;;;;5038614;28;20435;-70
2022/08/05 01:40:25;;;;;;;0.52;0.52;;;23.90;99.90;;;;;;5016922;28;20857;-71
2022/08/05 01:42:56;;;;;;;0.52;0.52;;;23.80;99.90;;;;;;5031442;28;20632;-71
2022/08/05 01:45:25;;;;;;;0.63;0.63;;;23.80;99.90;;;;;;5030505;28;20431;-71
2022/08/05 01:48:02;;;;;;;0.70;0.68;;;23.70;99.90;;;;;;5034591;28;21152;-72
2022/08/05 01:50:39;;;;;;;0.50;0.50;;;23.80;99.90;;;;;;5026983;28;20429;-72
2022/08/05 01:53:20;;;;;;;0.90;0.90;;;23.90;99.90;;;;;;5029040;28;20468;-74
2022/08/05 01:56:11;;;;;;;0.60;0.60;;;24.00;99.90;;;;;;5024617;28;20915;-75
2022/08/05 01:59:03;;;;;;;0.50;0.50;;;24.00;99.90;;;;;;5036201;28;20433;-75
2022/08/05 02:01:33;;;;;;;1.00;0.77;;;24.00;99.90;;;;;;5027063;28;20945;-76
2022/08/05 02:04:08;;;;;;;0.60;0.60;;;23.90;99.90;;;;;;5035248;28;20503;-76
2022/08/05 02:06:37;;;;;;;0.70;0.70;;;23.90;99.90;;;;;;5022919;28;20425;-74
2022/08/05 02:09:05;;;;;;;0.77;0.77;;;23.70;99.90;;;;;;5019404;28;20440;-74
2022/08/05 02:11:47;;;;;;;0.80;0.80;;;23.70;99.90;;;;;;5021650;28;20461;-73
2022/08/05 02:14:32;;;;;;;0.70;0.70;;;23.60;99.90;;;;;;5009712;28;20443;-72
2022/08/05 02:17:26;;;;;;;0.70;0.70;;;23.50;99.90;;;;;;5018317;28;20438;-72
2022/08/05 02:20:18;;;;;;;0.65;0.65;;;23.50;99.90;;;;;;5029212;28;20436;-70
2022/08/05 02:22:49;;;;;;;0.57;0.57;;;23.50;99.90;;;;;;5043216;28;20509;-71
2022/08/05 02:25:20;;;;;;;0.68;0.68;;;23.50;99.90;;;;;;5033233;28;20430;-70
2022/08/05 02:27:53;;;;;;;0.60;0.50;;;23.50;99.90;;;;;;5027399;28;20430;-71
2022/08/05 02:30:26;;;;;;;0.70;0.57;;;23.50;99.90;;;;;;5023856;28;20932;-71
2022/08/05 02:32:57;;;;;;;0.43;0.43;;;23.40;99.90;;;;;;5024701;28;20475;-70
2022/08/05 02:35:27;;;;;;;0.77;0.77;;;23.40;99.90;;;;;;5014728;28;20473;-72
2022/08/05 02:38:05;;;;;;;0.93;0.73;;;23.30;99.90;;;;;;5033223;28;20429;-72
2022/08/05 02:40:37;;;;;;;0.55;0.55;;;23.00;99.90;;;;;;5041403;28;20482;-72
2022/08/05 02:43:05;;;;;;;0.50;0.50;;;22.70;99.90;;;;;;5048666;28;20441;-73
2022/08/05 02:45:34;;;;;;;0.60;0.60;;;22.50;99.90;;;;;;5023898;28;20493;-73
2022/08/05 02:48:24;;;;;;;0.70;0.70;;;22.20;99.90;;;;;;5029937;28;20435;-72
2022/08/05 02:50:58;;;;;;;0.80;0.75;;;21.80;99.90;;;;;;5029238;28;20782;-72
2022/08/05 02:53:27;;;;;;;0.75;0.75;;;21.40;99.90;;;;;;5029126;28;20437;-73
2022/08/05 02:56:01;;;;;;;0.50;0.50;;;21.10;99.90;;;;;;5021867;28;20426;-72
2022/08/05 02:58:32;;;;;;;0.73;0.73;;;20.90;99.90;;;;;;5023092;28;20500;-74
2022/08/05 03:01:01;;;;;;;0.60;0.60;;;20.80;99.90;;;;;;5053679;28;20469;-72
2022/08/05 03:03:30;;;;;;;0.40;0.40;;;20.80;99.90;;;;;;5037835;28;20508;-72
2022/08/05 03:06:19;;;;;;;0.77;0.70;;;20.90;99.90;;;;;;5023421;28;20897;-74
2022/08/05 03:09:13;;;;;;;0.60;0.60;;;20.80;99.90;;;;;;5043023;28;21054;-72
2022/08/05 03:11:46;;;;;;;0.40;0.40;;;20.60;99.90;;;;;;5026429;28;20515;-72
2022/08/05 03:14:23;;;;;;;0.80;0.80;;;20.50;99.90;;;;;;5028314;28;20466;-71
2022/08/05 03:16:51;;;;;;;0.60;0.60;;;20.30;99.90;;;;;;5030189;28;20650;-71
2022/08/05 03:19:19;;;;;;;0.60;0.60;;;20.30;99.90;;;;;;5030439;28;21183;-72
2022/08/05 03:22:00;;;;;;;0.47;0.47;;;20.20;99.90;;;;;;5029266;28;20425;-72
2022/08/05 03:24:28;;;;;;;0.60;0.60;;;20.10;99.90;;;;;;5030947;28;20435;-72
2022/08/05 03:26:59;;;;;;;0.77;0.50;;;20.10;99.90;;;;;;5033814;28;20433;-74
2022/08/05 03:29:26;;;;;;;1.23;0.77;;;20.10;99.90;;;;;;5037003;28;20437;-74
2022/08/05 03:32:14;;;;;;;0.43;0.43;;;20.10;99.90;;;;;;5033367;28;20425;-74
2022/08/05 03:34:51;;;;;;;0.60;0.60;;;20.00;99.90;;;;;;5016902;28;20475;-72
2022/08/05 03:37:21;;;;;;;0.60;0.60;;;20.00;99.90;;;;;;5032401;28;20437;-72
2022/08/05 03:39:57;;;;;;;0.60;0.60;;;20.00;99.90;;;;;;5037888;28;20525;-74
2022/08/05 03:42:33;;;;;;;0.52;0.52;;;20.00;99.90;;;;;;5041174;28;20460;-74
2022/08/05 03:45:18;;;;;;;0.60;0.60;;;19.80;99.90;;;;;;5023752;28;20490;-74
2022/08/05 03:47:51;;;;;;;0.63;0.63;;;19.70;99.90;;;;;;5024503;28;20455;-69
2022/08/05 03:50:32;;;;;;;0.70;0.70;;;19.70;99.90;;;;;;5030697;28;20439;-67
2022/08/05 03:53:10;;;;;;;1.00;0.73;;;19.70;99.90;;;;;;5019379;28;20447;-66
2022/08/05 03:56:14;;;;;;;0.60;0.60;;;19.60;99.90;;;;;;5040819;28;20418;-66
2022/08/05 03:59:00;;;;;;;0.73;0.73;;;19.60;99.90;;;;;;5031297;28;20490;-65
2022/08/05 04:01:30;;;;;;;0.60;0.60;;;19.50;99.90;;;;;;5033468;28;20431;-65
2022/08/05 04:03:59;;;;;;;0.70;0.70;;;19.50;99.90;;;;;;5015199;28;20436;-65
2022/08/05 04:06:38;;;;;;;0.60;0.60;;;19.50;99.90;;;;;;5022322;28;20436;-65
2022/08/05 04:09:15;;;;;;;0.80;0.80;;;19.60;99.90;;;;;;5029548;28;20458;-65
2022/08/05 04:11:51;;;;;;;0.70;0.70;;;19.50;99.90;;;;;;5032648;28;20513;-65
2022/08/05 04:14:18;;;;;;;0.65;0.65;;;19.50;99.90;;;;;;5028956;28;20525;-65
2022/08/05 04:16:57;;;;;;;0.60;0.60;;;19.50;99.90;;;;;;5022735;28;20442;-64
2022/08/05 04:19:24;;;;;;;0.50;0.50;;;19.60;99.90;;;;;;5040184;28;20445;-64
2022/08/05 04:21:51;;;;;;;0.47;0.47;;;19.60;99.90;;;;;;5020853;28;20432;-64
2022/08/05 04:24:40;;;;;;;0.45;0.45;;;19.50;99.90;;;;;;5032170;28;20434;-65
2022/08/05 04:27:11;;;;;;;0.50;0.50;;;19.50;99.90;;;;;;5043753;28;20429;-64
2022/08/05 04:29:40;;;;;;;0.50;0.50;;;19.50;99.90;;;;;;5039914;28;20891;-64
2022/08/05 04:32:08;;;;;;;0.60;0.60;;;19.50;99.90;;;;;;5027192;28;20460;-64
2022/08/05 04:34:35;;;;;;;0.77;0.50;;;19.50;99.90;;;;;;5049505;28;20504;-64
2022/08/05 04:37:09;;;;;;;0.67;0.67;;;19.50;99.90;;;;;;5019794;28;20437;-64
2022/08/05 04:39:36;;;;;;;0.70;0.70;;;19.50;99.90;;;;;;5028627;28;20453;-64
2022/08/05 04:42:05;;;;;;;1.20;0.80;;;19.60;99.90;;;;;;5026697;28;20529;-64
2022/08/05 04:44:32;;;;;;;0.73;0.73;;;19.50;99.90;;;;;;5029297;28;20434;-66
2022/08/05 04:46:59;;;;;;;0.40;0.40;;;19.50;99.90;;;;;;5026947;28;20434;-65
2022/08/05 04:49:36;;;;;;;0.70;0.70;;;19.60;99.90;;;;;;5027702;28;20529;-65
2022/08/05 04:52:23;;;;;;;0.50;0.50;;;19.60;99.90;;;;;;5026162;28;20941;-66
2022/08/05 04:54:53;;;;;;;0.75;0.73;;;19.70;99.90;;;;;;5027688;28;20442;-65
2022/08/05 04:57:23;;;;;;;0.63;0.63;;;19.70;99.90;;;;;;5031530;28;20437;-65
2022/08/05 04:59:56;;;;;;;0.60;0.60;;;19.70;99.90;;;;;;5028017;28;21197;-66
2022/08/05 05:02:25;;;;;;;0.52;0.52;;;19.80;99.90;;;;;;5027639;28;20953;-66
2022/08/05 05:05:07;;;;;;;0.60;0.60;;;19.80;99.90;;;;;;5024968;28;20440;-66
2022/08/05 05:08:07;;;;;;;0.40;0.40;;;19.90;99.90;;;;;;5022719;28;20433;-66
2022/08/05 05:10:52;;;;;;;0.75;0.70;;;20.00;99.90;;;;;;5022917;28;20439;-65
2022/08/05 05:13:22;;;;;;;0.95;0.95;;;20.00;99.90;;;;;;5025577;28;20431;-65
2022/08/05 05:15:48;;;;;;;0.82;0.82;;;20.00;99.90;;;;;;5032481;28;20438;-66
2022/08/05 05:18:27;;;;;;;0.70;0.70;;;20.00;99.90;;;;;;5027223;28;20427;-65
2022/08/05 05:21:00;;;;;;;1.92;0.73;;;20.10;99.90;;;;;;5022766;28;20431;-66
2022/08/05 05:23:27;;;;;;;0.70;0.70;;;20.40;99.90;;;;;;5014887;28;20448;-65
2022/08/05 05:26:14;;;;;;;0.70;0.70;;;20.40;99.90;;;;;;5017278;28;20415;-65
2022/08/05 05:28:41;;;;;;;0.70;0.70;;;20.50;99.90;;;;;;5003464;28;20440;-66
2022/08/05 05:31:10;;;;;;;1.00;0.90;;;20.70;99.90;;;;;;5020230;28;20503;-66
2022/08/05 05:33:37;;;;;;;0.73;0.73;;;20.90;99.90;;;;;;5017898;28;20535;-65
2022/08/05 05:36:24;;;;;;;0.80;0.80;;;21.10;99.90;;;;;;5026971;28;20929;-65
2022/08/05 05:38:55;;;;;;;0.70;0.70;;;21.30;99.90;;;;;;5025946;28;20861;-65
2022/08/05 05:41:25;;;;;;;0.90;0.90;;;21.30;99.90;;;;;;5023580;28;20435;-65
2022/08/05 05:44:07;;;;;;;0.65;0.60;;;21.50;99.90;;;;;;5019903;28;20523;-66
2022/08/05 05:46:57;;;;;;;0.80;0.80;;;21.80;99.90;;;;;;5034433;28;20899;-66
2022/08/05 05:49:38;;;;;;;1.38;0.90;;;22.00;99.90;;;;;;5030538;28;20431;-64
2022/08/05 05:52:05;;;;;;;0.80;0.80;;;22.50;99.90;;;;;;5038395;28;20507;-65
2022/08/05 05:54:33;;;;;;;0.93;0.90;;;23.10;99.90;;;;;;5031331;28;20454;-65
2022/08/05 05:57:20;;;;;;;0.80;0.80;;;23.70;99.90;;;;;;5040668;28;20430;-65
2022/08/05 05:59:49;;;;;;;0.88;0.82;;;24.30;99.90;;;;;;5034690;28;20921;-64
2022/08/05 06:02:18;;;;;;;0.82;0.82;;;24.70;99.90;;;;;;5033136;28;20590;-64
2022/08/05 06:04:58;;;;;;;0.60;0.60;;;25.30;99.90;;;;;;5019344;28;20884;-65
2022/08/05 06:07:27;;;;;;;0.65;0.65;;;25.30;99.90;;;;;;5025116;28;20429;-65
2022/08/05 06:10:09;;;;;;;0.75;0.75;;;24.70;99.90;;;;;;5025109;28;21121;-65
2022/08/05 06:12:39;;;;;;;0.65;0.65;;;24.30;99.90;;;;;;5020824;28;20423;-64
2022/08/05 06:15:08;;;;;;;0.80;0.80;;;24.00;99.90;;;;;;5055249;28;20555;-65
2022/08/05 06:17:49;;;;;;;0.95;0.95;;;23.80;99.90;;;;;;5028279;28;20431;-65
2022/08/05 06:20:19;;;;;;;0.80;0.80;;;23.50;99.90;;;;;;5031303;28;20500;-65
2022/08/05 06:22:47;;;;;;;0.90;0.90;;;23.90;99.90;;;;;;5017534;28;20838;-65
2022/08/05 06:25:14;;;;;;;0.80;0.80;;;24.20;99.90;;;;;;5021691;28;20477;-65
2022/08/05 06:28:01;;;;;;;1.00;0.70;;;24.30;99.90;;;;;;5018130;28;20446;-65
2022/08/05 06:30:46;;;;;;;0.93;0.80;;;24.20;99.90;;;;;;5011767;28;20434;-65
2022/08/05 06:33:17;;;;;;;0.65;0.65;;;24.10;99.90;;;;;;5024929;28;20500;-65
2022/08/05 06:35:45;;;;;;;0.80;0.80;;;24.10;99.90;;;;;;5022026;28;20430;-65
2022/08/05 06:38:31;;;;;;;0.70;0.70;;;24.00;99.90;;;;;;5018841;28;20434;-64
2022/08/05 06:41:03;;;;;;;0.80;0.80;;;23.90;99.90;;;;;;5023724;28;20438;-64
2022/08/05 06:43:30;;;;;;;0.95;0.75;;;23.40;99.90;;;;;;5026616;28;20435;-63
2022/08/05 06:46:17;;;;;;;0.77;0.77;;;23.10;99.90;;;;;;5027373;28;20456;-63
2022/08/05 06:48:44;;;;;;;0.70;0.70;;;22.80;99.90;;;;;;5016014;28;20441;-65
2022/08/05 06:51:25;;;;;;;1.40;1.10;;;22.50;99.90;;;;;;5017905;28;20439;-63
2022/08/05 06:54:00;;;;;;;0.77;0.77;;;22.10;99.90;;;;;;5017736;28;20439;-64
2022/08/05 06:56:29;;;;;;;1.15;1.00;;;21.60;99.90;;;;;;5011766;28;21163;-63
2022/08/05 06:59:02;;;;;;;0.70;0.70;;;21.50;99.90;;;;;;5010830;28;20438;-64
2022/08/05 07:01:28;;;;;;;0.80;0.80;;;21.40;99.90;;;;;;5030362;28;20431;-64
2022/08/05 07:04:00;;;;;;;0.60;0.60;;;21.20;99.90;;;;;;5010046;28;21330;-64
2022/08/05 07:06:28;;;;;;;0.77;0.77;;;21.20;99.90;;;;;;5012605;28;20435;-65
2022/08/05 07:08:55;;;;;;;0.50;0.50;;;21.30;99.90;;;;;;5031514;28;20422;-65
2022/08/05 07:11:27;;;;;;;0.73;0.73;;;21.40;99.90;;;;;;5011083;28;20434;-65
2022/08/05 07:17:01;;;;;;;0.70;0.70;;;21.80;99.90;;;;;;5020740;28;20481;-65
2022/08/05 07:19:50;;;;;;;0.50;0.47;;;22.00;99.90;;;;;;5025630;28;20421;-65
2022/08/05 07:22:39;;;;;;;0.65;0.65;;;22.20;99.90;;;;;;5015410;28;20431;-64
2022/08/05 07:25:08;;;;;;;0.60;0.60;;;22.50;99.90;;;;;;5013644;28;20430;-64
2022/08/05 07:27:55;;;;;;;0.98;0.70;;;22.50;99.90;;;;;;5018434;28;20442;-65
2022/08/05 07:30:33;;;;;;;0.57;0.57;;;22.70;99.90;;;;;;5022193;28;21040;-65
2022/08/05 07:33:07;;;;;;;0.70;0.70;;;22.80;99.90;;;;;;5014923;28;20430;-65
2022/08/05 07:35:39;;;;;;;0.63;0.63;;;23.00;99.90;;;;;;5019848;28;20796;-65
2022/08/05 07:38:26;;;;;;;0.60;0.60;;;23.20;99.90;;;;;;5023568;28;20422;-65
2022/08/05 07:41:05;;;;;;;0.60;0.60;;;23.40;99.90;;;;;;5025353;28;20429;-65
2022/08/05 07:43:52;;;;;;;0.50;0.50;;;23.40;99.90;;;;;;5024434;28;20417;-64
2022/08/05 07:46:22;;;;;;;0.70;0.70;;;23.10;99.90;;;;;;5029450;28;20432;-64
2022/08/05 07:48:52;;;;;;;0.70;0.70;;;22.90;99.90;;;;;;5026763;28;20471;-64
2022/08/05 07:51:35;;;;;;;0.77;0.75;;;22.70;99.90;;;;;;5026006;28;20523;-64
2022/08/05 07:54:20;;;;;;;0.90;0.90;;;22.40;99.90;;;;;;5021504;28;20432;-64
2022/08/05 07:56:52;;;;;;;0.80;0.77;;;22.30;99.90;;;;;;5027450;28;20463;-64
2022/08/05 07:59:39;;;;;;;0.60;0.60;;;22.10;99.90;;;;;;5018203;28;20462;-64
2022/08/05 08:02:10;;;;;;;0.60;0.60;;;22.10;99.90;;;;;;5023328;28;20443;-65
2022/08/05 08:04:47;;;;;;;0.80;0.80;;;22.30;99.90;;;;;;5055201;28;20440;-64
2022/08/05 08:07:16;;;;;;;1.52;0.63;;;22.40;99.90;;;;;;5037743;28;20432;-64
2022/08/05 08:09:44;;;;;;;0.50;0.50;;;22.50;99.90;;;;;;5037160;28;20430;-64
2022/08/05 08:12:14;;;;;;;0.70;0.70;;;22.50;99.90;;;;;;5033710;28;20861;-63
2022/08/05 08:15:02;;;;;;;0.60;0.60;;;22.50;99.90;;;;;;5026112;28;20422;-64
2022/08/05 08:17:31;;;;;;;0.50;0.50;;;22.80;99.90;;;;;;5024535;28;21560;-64
2022/08/05 08:19:58;;;;;;;1.38;0.60;;;23.00;99.90;;;;;;5014395;28;20566;-64
2022/08/05 08:22:56;;;;;;;0.60;0.60;;;23.30;99.90;;;;;;5026169;28;20956;-64
2022/08/05 08:25:23;;;;;;;0.60;0.60;;;23.20;99.90;;;;;;5027131;28;20434;-64
2022/08/05 08:28:10;;;;;;;0.70;0.70;;;23.20;99.90;;;;;;5035381;28;20419;-64
2022/08/05 08:30:56;;;;;;;0.60;0.60;;;23.30;99.90;;;;;;5024232;28;20429;-64
2022/08/05 08:33:23;;;;;;;0.70;0.70;;;23.40;99.90;;;;;;5029586;28;20519;-64
2022/08/05 08:35:52;;;;;;;0.70;0.70;;;23.60;99.90;;;;;;5030676;28;20907;-64
2022/08/05 08:38:39;;;;;;;0.50;0.50;;;23.50;99.90;;;;;;5023628;28;20429;-64
2022/08/05 08:41:09;;;;;;;0.50;0.50;;;23.50;99.90;;;;;;5025315;28;20448;-64
2022/08/05 08:43:41;;;;;;;0.63;0.63;;;23.40;99.90;;;;;;5031983;28;20438;-63
2022/08/05 08:46:30;;;;;;;0.55;0.55;;;23.40;99.90;;;;;;5024004;28;20432;-62
2022/08/05 08:48:58;;;;;;;0.68;0.68;;;23.70;99.90;;;;;;5026384;28;20429;-59
2022/08/05 08:52:00;;;;;;;0.68;0.68;;;23.80;99.90;;;;;;5035671;28;20417;-63
2022/08/05 08:54:32;;;;;;;0.70;0.70;;;23.90;99.90;;;;;;5022082;28;20432;-63
2022/08/05 08:57:03;;;;;;;0.60;0.60;;;23.80;99.90;;;;;;5015693;28;20462;-63
2022/08/05 08:59:37;;;;;;;0.63;0.63;;;23.90;99.90;;;;;;5023819;28;20432;-62
2022/08/05 09:02:07;;;;;;;0.75;0.75;;;24.00;99.90;;;;;;5031403;28;20429;-63
2022/08/05 09:04:38;;;;;;;0.68;0.68;;;24.10;99.90;;;;;;5030956;28;20435;-63
2022/08/05 09:07:25;;;;;;;0.90;0.90;;;24.50;99.90;;;;;;5018625;28;21145;-63
2022/08/05 09:09:55;;;;;;;0.40;0.40;;;24.70;99.90;;;;;;5016359;28;20423;-63
2022/08/05 09:12:22;;;;;;;0.50;0.50;;;24.60;99.90;;;;;;5017209;28;20438;-64
2022/08/05 09:14:53;;;;;;;0.60;0.60;;;24.70;99.90;;;;;;5033009;28;20456;-63
2022/08/05 09:17:34;;;;;;;0.93;0.68;;;25.00;99.90;;;;;;5026551;28;20431;-63
2022/08/05 09:20:13;;;;;;;0.70;0.70;;;24.90;99.90;;;;;;5032485;28;20516;-62
2022/08/05 09:23:03;;;;;;;0.80;0.80;;;24.90;99.90;;;;;;5029475;28;20430;-63
2022/08/05 09:25:35;;;;;;;0.50;0.50;;;25.00;99.90;;;;;;5026879;28;20470;-61
2022/08/05 09:28:24;;;;;;;0.60;0.60;;;25.20;99.90;;;;;;5020145;28;20450;-62
2022/08/05 09:31:07;;;;;;;0.40;0.40;;;24.90;99.90;;;;;;5028541;28;20437;-61
2022/08/05 09:33:58;;;;;;;0.60;0.60;;;24.90;99.90;;;;;;5024416;28;20459;-61
2022/08/05 09:36:48;;;;;;;0.70;0.70;;;25.20;99.90;;;;;;5017175;28;20470;-62
2022/08/05 09:39:24;;;;;;;0.70;0.70;;;25.70;99.90;;;;;;5019195;28;20442;-62
2022/08/05 09:42:14;;;;;;;0.60;0.60;;;26.00;99.90;;;;;;5023147;28;20462;-64
2022/08/05 09:44:55;;;;;;;0.68;0.68;;;26.30;99.90;;;;;;5024812;28;20598;-63
2022/08/05 09:47:41;;;;;;;0.80;0.60;;;26.60;99.90;;;;;;5026120;28;20817;-63
2022/08/05 09:50:21;;;;;;;0.60;0.60;;;27.10;99.90;;;;;;5020803;28;20487;-64
2022/08/05 09:53:04;;;;;;;0.50;0.50;;;27.20;99.90;;;;;;5031620;28;20512;-63
2022/08/05 09:55:35;;;;;;;0.40;0.40;;;27.40;99.90;;;;;;5021011;28;20925;-62
2022/08/05 09:58:22;;;;;;;0.50;0.50;;;27.40;99.90;;;;;;5015816;28;20850;-63
2022/08/05 10:01:01;;;;;;;0.50;0.50;;;27.20;99.90;;;;;;5020124;28;20805;-63
2022/08/05 10:03:54;;;;;;;0.60;0.60;;;26.80;99.90;;;;;;5029871;28;20427;-61
2022/08/05 10:06:26;;;;;;;0.60;0.60;;;26.90;99.90;;;;;;5023195;28;20496;-62
2022/08/05 10:08:54;;;;;;;0.50;0.50;;;27.00;99.90;;;;;;5013207;28;20426;-62
2022/08/05 10:11:21;;;;;;;0.40;0.40;;;27.20;99.90;;;;;;5024429;28;20512;-63
2022/08/05 10:13:48;;;;;;;0.57;0.57;;;27.40;99.90;;;;;;5020639;28;20949;-62
2022/08/05 10:16:32;;;;;;;0.50;0.50;;;27.60;99.90;;;;;;5023436;28;20861;-63
2022/08/05 10:19:00;;;;;;;1.10;0.70;;;27.60;99.90;;;;;;5028886;28;20433;-63
2022/08/05 10:21:34;;;;;;;0.60;0.60;;;27.60;99.90;;;;;;5036191;28;20433;-63
2022/08/05 10:24:14;;;;;;;0.50;0.50;;;28.00;99.90;;;;;;5025274;28;20437;-63
2022/08/05 10:26:42;;;;;;;0.40;0.40;;;28.30;99.90;;;;;;5020756;28;20465;-63
2022/08/05 10:29:19;;;;;;;0.52;0.52;;;28.80;99.90;;;;;;5025257;28;20435;-62
2022/08/05 10:32:06;;;;;;;0.68;0.68;;;29.00;99.90;;;;;;5032587;28;20505;-63
2022/08/05 10:34:56;;;;;;;0.65;0.65;;;29.20;99.90;;;;;;5025284;28;20879;-63
2022/08/05 10:37:29;;;;;;;0.52;0.52;;;29.30;99.90;;;;;;5022004;28;20492;-63
2022/08/05 10:40:44;;;;;;;1.40;0.60;;;29.40;99.90;;;;;;5015030;28;20434;-63
2022/08/05 10:43:36;;;;;;;0.70;0.70;;;29.70;99.90;;;;;;5018484;28;20524;-64
2022/08/05 10:46:06;;;;;;;0.60;0.60;;;30.00;99.90;;;;;;5013237;28;20439;-64
2022/08/05 10:48:38;;;;;;;0.47;0.47;;;30.20;99.90;;;;;;5032405;28;20439;-65
2022/08/05 10:51:40;;;;;;;0.60;0.60;;;30.30;99.90;;;;;;5025875;28;20447;-63
2022/08/05 10:55:03;;;;;;;0.70;0.70;;;30.60;99.90;;;;;;5032198;28;20440;-64
2022/08/05 10:57:33;;;;;;;0.50;0.50;;;30.80;99.90;;;;;;5026931;28;20435;-64
2022/08/05 11:00:13;;;;;;;0.55;0.55;;;30.60;99.90;;;;;;5018753;28;20463;-66
2022/08/05 11:02:58;;;;;;;0.80;0.80;;;30.10;99.90;;;;;;5011214;28;20442;-65
2022/08/05 11:06:02;;;;;;;0.50;0.50;;;29.70;99.90;;;;;;5016771;28;20415;-64
2022/08/05 11:09:20;;;;;;;0.82;0.70;;;29.80;99.90;;;;;;5021612;28;20427;-65
2022/08/05 11:12:25;;;;;;;0.50;0.50;;;29.60;99.90;;;;;;5027197;28;20482;-64
2022/08/05 11:15:17;;;;;;;0.60;0.60;;;29.60;99.90;;;;;;5050762;28;20440;-64
2022/08/05 11:17:51;;;;;;;0.57;0.57;;;29.30;99.90;;;;;;5029292;28;20952;-65
2022/08/05 11:20:42;;;;;;;0.50;0.50;;;29.10;99.90;;;;;;5029859;28;20431;-64
2022/08/05 11:23:42;;;;;;;0.47;0.47;;;29.00;99.90;;;;;;5024680;28;20441;-64
2022/08/05 11:26:29;;;;;;;0.50;0.50;;;29.30;99.90;;;;;;5020784;28;20749;-65
2022/08/05 11:29:02;;;;;;;0.55;0.55;;;29.80;99.90;;;;;;5024110;28;22041;-64
2022/08/05 11:31:40;;;;;;;0.57;0.57;;;30.00;99.90;;;;;;5012913;28;20434;-64
2022/08/05 11:34:39;;;;;;;0.63;0.63;;;30.30;99.90;;;;;;5020016;28;20442;-65
2022/08/05 11:37:52;;;;;;;0.63;0.63;;;30.40;99.90;;;;;;5028393;28;20470;-65
2022/08/05 11:40:54;;;;;;;0.50;0.50;;;30.60;99.90;;;;;;5017377;28;20422;-65
2022/08/05 11:43:29;;;;;;;0.57;0.57;;;30.40;99.90;;;;;;5009358;28;20434;-65
2022/08/05 11:46:16;;;;;;;0.80;0.80;;;30.30;99.90;;;;;;5025262;28;20425;-64
2022/08/05 11:49:00;;;;;;;0.50;0.50;;;30.10;99.90;;;;;;5038868;28;20784;-67
2022/08/05 11:51:30;;;;;;;0.93;0.70;;;30.00;99.90;;;;;;5022189;28;20445;-66
2022/08/05 11:54:33;;;;;;;1.10;1.10;;;30.60;99.90;;;;;;5013024;28;20441;-66
2022/08/05 11:57:02;;;;;;;3.30;3.10;;;31.00;99.90;;;;;;5017726;28;20461;-64
2022/08/05 11:59:49;;;;;;;4.78;4.38;;;31.30;99.90;;;;;;5019034;28;20468;-63
2022/08/05 12:02:17;;;;;;;0.90;0.90;;;31.50;99.90;;;;;;5033546;28;20439;-64
2022/08/05 12:04:49;;;;;;;0.70;0.70;;;31.40;99.90;;;;;;5014641;28;20509;-65
2022/08/05 12:07:25;;;;;;;0.85;0.85;;;31.60;99.90;;;;;;5018839;28;20529;-65
2022/08/05 12:10:12;;;;;;;0.70;0.70;;;31.70;99.90;;;;;;5021650;28;20430;-66
2022/08/05 12:12:41;;;;;;;0.80;0.80;;;31.80;99.90;;;;;;5019380;28;20441;-65
2022/08/05 12:15:25;;;;;;;443.63;346.52;;;32.20;99.90;;;;;;5016593;28;20438;-64
2022/08/05 12:18:04;;;;;;;172.53;141.90;;;32.60;99.90;;;;;;5020980;28;20450;-63
2022/08/05 12:20:38;;;;;;;10.85;8.45;;;32.80;99.90;;;;;;5011688;28;21164;-64
2022/08/05 12:23:12;;;;;;;1.27;1.27;;;33.00;99.90;;;;;;5015701;28;20438;-67
2022/08/05 12:25:53;;;;;;;1.40;1.40;;;33.10;99.90;;;;;;5021372;28;20437;-66
2022/08/05 12:28:35;;;;;;;1.00;1.00;;;33.30;99.90;;;;;;5015947;28;20441;-67
2022/08/05 12:31:03;;;;;;;1.30;1.30;;;33.60;99.90;;;;;;5011426;28;20592;-66
2022/08/05 12:33:31;;;;;;;0.80;0.80;;;33.70;99.90;;;;;;5014791;28;20441;-65
2022/08/05 12:36:05;;;;;;;0.98;0.98;;;33.40;99.90;;;;;;5018993;28;20813;-65
2022/08/05 12:38:38;;;;;;;0.73;0.73;;;33.80;99.90;;;;;;5018427;28;20441;-66
2022/08/05 12:41:09;;;;;;;0.90;0.90;;;33.70;99.90;;;;;;5016829;28;20928;-66
2022/08/05 12:43:56;;;;;;;0.80;0.80;;;33.30;99.90;;;;;;5031641;28;20463;-66
2022/08/05 12:46:25;;;;;;;0.90;0.90;;;32.80;99.90;;;;;;5020945;28;20461;-65
2022/08/05 12:49:00;;;;;;;1.20;1.20;;;32.20;99.90;;;;;;5018150;28;20433;-65
2022/08/05 12:51:44;;;;;;;0.80;0.80;;;31.90;99.90;;;;;;5010806;28;20543;-66
2022/08/05 12:54:31;;;;;;;0.85;0.85;;;31.80;99.90;;;;;;5020123;28;20457;-65
2022/08/05 12:56:59;;;;;;;0.77;0.77;;;32.00;99.90;;;;;;5021230;28;20522;-65
2022/08/05 12:59:31;;;;;;;0.80;0.80;;;32.00;99.90;;;;;;5029255;28;20813;-66
2022/08/05 13:02:25;;;;;;;0.77;0.77;;;31.50;99.90;;;;;;5020381;28;20472;-66
2022/08/05 13:04:56;;;;;;;0.70;0.70;;;31.10;99.90;;;;;;5031016;28;20458;-64
2022/08/05 13:07:25;;;;;;;0.80;0.80;;;30.70;99.90;;;;;;5017438;28;20435;-65
2022/08/05 13:10:13;;;;;;;1.00;1.00;;;30.30;99.90;;;;;;5013378;28;20950;-64
2022/08/05 13:12:46;;;;;;;1.00;1.00;;;29.80;99.90;;;;;;5026920;28;21142;-65
2022/08/05 13:15:30;;;;;;;0.88;0.88;;;29.50;99.90;;;;;;5009003;28;20440;-64
2022/08/05 13:18:17;;;;;;;0.90;0.90;;;29.30;99.90;;;;;;5021763;28;20461;-65
2022/08/05 13:20:47;;;;;;;0.90;0.90;;;29.20;99.90;;;;;;5020872;28;20519;-65
2022/08/05 13:23:15;;;;;;;0.95;0.95;;;29.00;99.90;;;;;;5033604;28;20430;-63
2022/08/05 13:25:49;;;;;;;0.82;0.82;;;28.60;99.90;;;;;;5010672;28;20483;-64
2022/08/05 13:28:24;;;;;;;0.80;0.80;;;28.50;99.90;;;;;;5023849;28;20518;-65
2022/08/05 13:30:51;;;;;;;0.80;0.80;;;28.40;99.90;;;;;;5033460;28;20432;-65
2022/08/05 13:33:22;;;;;;;0.80;0.80;;;28.30;99.90;;;;;;5016296;28;20429;-64
2022/08/05 13:36:09;;;;;;;2.08;0.93;;;28.50;99.90;;;;;;5022233;28;20431;-66
2022/08/05 13:38:36;;;;;;;0.82;0.82;;;29.30;99.90;;;;;;5023692;28;20480;-66
2022/08/05 13:41:10;;;;;;;0.85;0.85;;;29.30;99.90;;;;;;5030799;28;20438;-67